In Rescue
 
Open Full Screen Window  High Contrast Mode
Wind Gusting 00 knots
09
May 20, 2019 2:33 PM CDT
Weather Information
Wind Direction
  020 °
Wind Speed
  09 kt (10 mph)
Wind Gust
  00 kt (0 mph)
Altimeter
30.14 in
Visibility
10 SM
Temperature
14° C
57° F
Dewpoint
01° C
34° F
Humidity
41%
1hr Rain Fall
00.00 in.
24hr Rain Fall
00.00 in.
Sky Condition
Scattered @ 4,300 ft
VFR

METAR K9MN 201933Z AUTO 02009KT 10SM SCT043 14/01 A3014 RMK AO1 T01380014

FAA Disclaimer: The data displayed is for advisory purposes only and is not to be used for flight planning or operations.